Time;durP1;ratioP1;P1;durP2;ratioP2;P2;SDS_P1;SDS_P2;PMS_P1;PMS_P2;Temp;Humidity;BMP_temperature;BMP_pressure;BME280_temperature;BME280_humidity;BME280_pressure;Samples;Min_cycle;Max_cycle;Signal;HPM_P1;HPM_P2
2021/12/31 00:00:08;;;;;;;6.30;0.60;;;13.50;99.90;;;;;;5074270;28;20480;-79
2021/12/31 00:02:33;;;;;;;7.25;0.57;;;13.40;99.90;;;;;;5075819;28;20103;-79
2021/12/31 00:04:59;;;;;;;6.45;0.80;;;13.50;99.90;;;;;;5074724;28;20044;-78
2021/12/31 00:07:24;;;;;;;5.25;0.40;;;13.50;99.90;;;;;;5075885;28;20024;-79
2021/12/31 00:09:50;;;;;;;4.60;0.50;;;13.50;99.90;;;;;;5075620;28;20381;-79
2021/12/31 00:12:16;;;;;;;4.57;0.90;;;13.50;99.90;;;;;;5074124;28;20020;-79
2021/12/31 00:14:41;;;;;;;5.82;0.77;;;13.50;99.90;;;;;;5075476;28;20024;-79
2021/12/31 00:17:07;;;;;;;3.65;1.05;;;13.40;99.90;;;;;;5075782;28;20198;-78
2021/12/31 00:19:39;;;;;;;8.52;0.60;;;13.40;99.90;;;;;;5075526;28;20480;-79
2021/12/31 00:22:29;;;;;;;5.78;0.65;;;13.40;99.90;;;;;;5074166;28;20453;-79
2021/12/31 00:24:50;;;;;;;5.35;0.88;;;13.40;99.90;;;;;;5074948;28;20492;-79
2021/12/31 00:27:16;;;;;;;5.18;0.70;;;13.40;99.90;;;;;;5073934;28;20036;-77
2021/12/31 00:29:41;;;;;;;5.70;1.10;;;13.40;99.90;;;;;;5080618;28;20028;-80
2021/12/31 00:32:07;;;;;;;9.52;0.70;;;13.30;99.90;;;;;;5097380;28;20369;-76
2021/12/31 00:34:33;;;;;;;6.20;0.70;;;13.90;99.90;;;;;;5097893;28;20048;-80
2021/12/31 00:36:58;;;;;;;4.80;0.60;;;13.40;99.90;;;;;;5097718;28;20020;-79
2021/12/31 00:39:24;;;;;;;1.95;0.17;;;13.40;99.90;;;;;;5096910;28;20465;-79
2021/12/31 00:41:49;;;;;;;2.60;0.30;;;13.40;99.90;;;;;;5096030;28;20016;-80
2021/12/31 00:44:15;;;;;;;5.70;1.10;;;13.40;99.90;;;;;;5095758;28;20024;-79
2021/12/31 00:46:41;;;;;;;2.03;0.30;;;13.40;99.90;;;;;;5095657;28;20024;-80
2021/12/31 00:49:06;;;;;;;3.70;0.40;;;13.50;99.90;;;;;;5096876;28;20047;-79
2021/12/31 00:51:33;;;;;;;3.38;0.43;;;13.50;99.90;;;;;;5093937;28;20165;-79
2021/12/31 00:53:59;;;;;;;4.50;0.28;;;13.50;99.90;;;;;;5094312;28;20024;-79
2021/12/31 00:56:24;;;;;;;1.98;0.20;;;13.60;99.90;;;;;;5096279;28;20081;-79
2021/12/31 00:58:50;;;;;;;3.25;0.60;;;13.60;99.90;;;;;;5094971;28;20026;-79
2021/12/31 01:01:21;;;;;;;4.22;0.90;;;13.60;99.90;;;;;;5094285;28;20101;-79
2021/12/31 01:03:48;;;;;;;4.47;0.95;;;13.60;99.90;;;;;;5095291;28;20380;-79
2021/12/31 01:06:14;;;;;;;5.20;0.13;;;13.70;99.90;;;;;;5096190;28;20024;-79
2021/12/31 01:08:40;;;;;;;3.45;0.17;;;13.70;99.90;;;;;;5095872;28;20099;-79
2021/12/31 01:11:06;;;;;;;2.55;0.20;;;13.70;99.90;;;;;;5094814;28;20069;-79
2021/12/31 01:13:37;;;;;;;3.88;0.13;;;13.70;99.90;;;;;;5096158;28;20016;-80
2021/12/31 01:16:04;;;;;;;3.63;0.38;;;13.80;99.90;;;;;;5094971;28;20028;-78
2021/12/31 01:21:15;;;;;;;4.18;0.10;;;13.80;99.90;;;;;;5095471;28;20450;-78
2021/12/31 01:23:41;;;;;;;4.35;0.65;;;13.80;99.90;;;;;;5095045;28;20024;-78
2021/12/31 01:26:07;;;;;;;5.93;0.10;;;13.80;99.90;;;;;;5093809;28;20058;-79
2021/12/31 01:28:33;;;;;;;0.93;0.00;;;13.80;99.90;;;;;;5095261;28;20469;-78
2021/12/31 01:30:58;;;;;;;1.42;0.13;;;13.80;99.90;;;;;;5093836;28;20174;-79
2021/12/31 01:33:24;;;;;;;2.10;0.10;;;13.80;99.90;;;;;;5093767;28;20055;-78
2021/12/31 01:35:50;;;;;;;1.77;0.30;;;13.70;99.90;;;;;;5095458;28;20028;-79
2021/12/31 01:38:16;;;;;;;6.30;0.40;;;13.70;99.90;;;;;;5094867;28;20021;-79
2021/12/31 01:40:42;;;;;;;1.55;0.20;;;13.80;99.90;;;;;;5093629;28;20023;-78
2021/12/31 01:43:08;;;;;;;2.13;0.38;;;13.70;99.90;;;;;;5093846;28;20028;-79
2021/12/31 01:45:43;;;;;;;2.78;0.20;;;13.70;99.90;;;;;;5093636;28;20021;-78
2021/12/31 01:48:21;;;;;;;3.28;0.17;;;13.70;99.90;;;;;;5094944;28;20034;-79
2021/12/31 01:50:46;;;;;;;2.72;0.28;;;13.70;99.90;;;;;;5094582;28;20499;-79
2021/12/31 01:53:13;;;;;;;4.03;0.73;;;13.70;99.90;;;;;;5094023;28;20008;-80
2021/12/31 01:55:40;;;;;;;2.15;0.20;;;13.60;99.90;;;;;;5098498;28;20016;-80
2021/12/31 01:58:09;;;;;;;2.63;0.20;;;13.60;99.90;;;;;;5097547;28;20024;-80
2021/12/31 02:00:35;;;;;;;;;;;13.70;99.90;;;;;;5099434;28;20024;-80
2021/12/31 02:03:01;;;;;;;3.63;0.17;;;13.60;99.90;;;;;;5097192;28;20360;-80
2021/12/31 02:05:28;;;;;;;3.67;0.25;;;13.70;99.90;;;;;;5097245;28;20039;-80
2021/12/31 02:07:53;;;;;;;1.02;0.22;;;13.60;99.90;;;;;;5098270;28;20028;-80
2021/12/31 02:10:19;;;;;;;1.65;0.80;;;13.70;99.90;;;;;;5096804;28;20078;-80
2021/12/31 02:12:46;;;;;;;1.77;0.10;;;13.70;99.90;;;;;;5098344;28;20027;-79
2021/12/31 02:15:13;;;;;;;3.38;0.13;;;13.70;99.90;;;;;;5096734;28;20622;-80
2021/12/31 02:17:39;;;;;;;2.70;0.35;;;13.70;99.90;;;;;;5096649;28;20016;-79
2021/12/31 02:20:06;;;;;;;1.98;0.40;;;13.80;99.90;;;;;;5097937;28;20032;-80
2021/12/31 02:22:43;;;;;;;1.85;0.55;;;13.70;99.90;;;;;;5096767;28;20016;-80
2021/12/31 02:25:09;;;;;;;3.08;0.17;;;13.80;99.90;;;;;;5098837;28;20024;-80
2021/12/31 02:27:39;;;;;;;4.90;0.10;;;13.80;99.90;;;;;;5097892;28;20035;-80
2021/12/31 02:30:08;;;;;;;1.17;0.10;;;13.80;99.90;;;;;;5096937;28;20366;-81
2021/12/31 02:32:33;;;;;;;6.65;1.05;;;13.90;99.90;;;;;;5098201;28;20111;-81
2021/12/31 02:34:59;;;;;;;2.15;0.00;;;13.90;99.90;;;;;;5097215;28;20052;-81
2021/12/31 02:37:25;;;;;;;1.58;0.00;;;13.90;99.90;;;;;;5096798;28;20484;-80
2021/12/31 02:39:50;;;;;;;3.47;0.10;;;13.90;99.90;;;;;;5097343;28;20040;-80
2021/12/31 02:42:16;;;;;;;2.25;0.00;;;13.90;99.90;;;;;;5099149;28;20028;-80
2021/12/31 02:44:43;;;;;;;3.55;0.22;;;13.90;99.90;;;;;;5098548;28;20031;-80
2021/12/31 02:47:09;;;;;;;1.38;0.20;;;13.90;99.90;;;;;;5096679;28;20511;-80
2021/12/31 02:49:39;;;;;;;3.70;0.20;;;13.90;99.90;;;;;;5096828;28;20387;-80
2021/12/31 02:52:07;;;;;;;7.13;0.47;;;13.90;99.90;;;;;;5096081;28;20496;-80
2021/12/31 02:54:36;;;;;;;1.23;0.00;;;13.80;99.90;;;;;;5096569;28;20020;-80
2021/12/31 02:57:02;;;;;;;6.55;0.10;;;13.80;99.90;;;;;;5096738;28;20077;-81
2021/12/31 02:59:28;;;;;;;2.10;0.10;;;13.90;99.90;;;;;;5096695;28;20032;-80
2021/12/31 03:01:55;;;;;;;5.28;0.38;;;13.90;99.90;;;;;;5098334;28;20380;-80
2021/12/31 03:04:23;;;;;;;4.47;0.47;;;13.80;99.90;;;;;;5097171;28;20063;-80
2021/12/31 03:06:49;;;;;;;2.03;0.00;;;13.80;99.90;;;;;;5098111;28;20028;-80
2021/12/31 03:09:17;;;;;;;2.80;0.10;;;13.90;99.90;;;;;;5097132;28;20060;-80
2021/12/31 03:11:42;;;;;;;1.25;0.10;;;13.80;99.90;;;;;;5098404;28;20041;-80
2021/12/31 03:14:09;;;;;;;5.32;0.43;;;13.90;99.90;;;;;;5097618;28;20103;-79
2021/12/31 03:16:35;;;;;;;1.92;0.10;;;13.80;99.90;;;;;;5096854;28;20035;-80
2021/12/31 03:19:02;;;;;;;5.68;0.00;;;13.90;99.90;;;;;;5096311;28;20392;-79
2021/12/31 03:21:29;;;;;;;2.05;0.60;;;13.80;99.90;;;;;;5096345;28;20488;-79
2021/12/31 03:23:55;;;;;;;4.10;0.57;;;13.80;99.90;;;;;;5096537;28;20081;-79
2021/12/31 03:26:22;;;;;;;2.85;0.00;;;13.80;99.90;;;;;;5095141;28;20384;-79
2021/12/31 03:28:48;;;;;;;2.83;0.10;;;13.70;99.90;;;;;;5096945;28;20379;-79
2021/12/31 03:31:14;;;;;;;0.98;0.00;;;13.70;99.90;;;;;;5094657;28;20016;-79
2021/12/31 03:33:39;;;;;;;2.20;0.10;;;13.80;99.90;;;;;;5095241;28;20023;-79
2021/12/31 03:36:05;;;;;;;2.45;0.10;;;13.80;99.90;;;;;;5099383;28;20032;-80
2021/12/31 03:38:31;;;;;;;4.93;0.10;;;13.80;99.90;;;;;;5099025;28;20051;-80
2021/12/31 03:40:56;;;;;;;2.15;0.20;;;13.80;99.90;;;;;;5097393;28;20043;-79
2021/12/31 03:43:22;;;;;;;0.38;0.25;;;13.80;99.90;;;;;;5100631;28;20016;-80
2021/12/31 03:45:50;;;;;;;1.35;0.10;;;13.90;99.90;;;;;;5099453;28;20024;-80
2021/12/31 03:48:19;;;;;;;3.20;0.55;;;13.90;99.90;;;;;;5099215;28;20016;-80
2021/12/31 03:50:45;;;;;;;1.88;0.10;;;13.80;99.90;;;;;;5098651;28;20024;-79
2021/12/31 03:53:11;;;;;;;6.05;0.73;;;13.90;99.90;;;;;;5099458;28;20088;-79
2021/12/31 03:55:36;;;;;;;4.05;0.38;;;13.80;99.90;;;;;;5100093;28;20068;-81
2021/12/31 03:58:02;;;;;;;2.63;0.20;;;13.90;99.90;;;;;;5100593;28;20024;-80
2021/12/31 04:00:29;;;;;;;2.08;0.00;;;13.90;99.90;;;;;;5099030;28;20023;-80
2021/12/31 04:02:57;;;;;;;2.40;0.43;;;13.90;99.90;;;;;;5098878;28;20027;-80
2021/12/31 04:05:24;;;;;;;2.38;0.10;;;13.80;99.90;;;;;;5098438;28;20020;-80
2021/12/31 04:07:51;;;;;;;5.28;0.85;;;13.80;99.90;;;;;;5095849;28;20028;-78
2021/12/31 04:10:22;;;;;;;0.35;0.00;;;13.80;99.90;;;;;;5095698;28;20034;-77
2021/12/31 04:12:47;;;;;;;3.05;0.10;;;13.80;99.90;;;;;;5094537;28;20472;-76
2021/12/31 04:15:13;;;;;;;1.38;0.05;;;13.70;99.90;;;;;;5096010;28;20084;-76
2021/12/31 04:17:40;;;;;;;0.95;0.00;;;13.70;99.90;;;;;;5095709;28;20039;-76
2021/12/31 04:20:10;;;;;;;2.67;0.10;;;13.70;99.90;;;;;;5094291;28;20119;-77
2021/12/31 04:22:37;;;;;;;1.65;0.10;;;13.80;99.90;;;;;;5094436;28;20042;-78
2021/12/31 04:25:03;;;;;;;2.65;0.10;;;13.70;99.90;;;;;;5095993;28;20035;-78
2021/12/31 04:27:28;;;;;;;2.35;0.00;;;13.70;99.90;;;;;;5094360;28;20032;-78
2021/12/31 04:29:54;;;;;;;1.48;0.10;;;13.70;99.90;;;;;;5095691;28;20024;-78
2021/12/31 04:32:21;;;;;;;1.58;0.00;;;13.70;99.90;;;;;;5095978;28;20009;-78
2021/12/31 04:34:47;;;;;;;2.28;0.20;;;13.70;99.90;;;;;;5095404;28;20095;-76
2021/12/31 04:37:13;;;;;;;1.58;0.40;;;13.70;99.90;;;;;;5094082;28;20024;-76
2021/12/31 04:39:39;;;;;;;4.47;0.20;;;13.70;99.90;;;;;;5094016;28;20374;-77
2021/12/31 04:42:05;;;;;;;1.67;0.20;;;13.70;99.90;;;;;;5094049;28;20020;-78
2021/12/31 04:44:31;;;;;;;0.50;0.00;;;13.70;99.90;;;;;;5095458;28;20016;-77
2021/12/31 04:46:56;;;;;;;0.55;0.00;;;13.70;99.90;;;;;;5094464;28;20456;-77
2021/12/31 04:49:22;;;;;;;4.88;0.40;;;13.70;99.90;;;;;;5094604;28;20381;-77
2021/12/31 04:51:47;;;;;;;1.95;0.10;;;13.70;99.90;;;;;;5094326;28;20412;-77
2021/12/31 04:54:15;;;;;;;3.78;0.05;;;13.70;99.90;;;;;;5095540;28;20529;-77
2021/12/31 04:56:43;;;;;;;3.42;0.50;;;13.70;99.90;;;;;;5095457;28;20027;-77
2021/12/31 04:59:09;;;;;;;5.32;0.00;;;13.70;99.90;;;;;;5096081;28;20024;-77
2021/12/31 05:01:35;;;;;;;2.00;0.10;;;13.70;99.90;;;;;;5094233;28;20480;-78
2021/12/31 05:04:05;;;;;;;1.02;0.00;;;13.70;99.90;;;;;;5095306;28;20035;-77
2021/12/31 05:06:30;;;;;;;0.73;0.08;;;14.00;99.90;;;;;;5094104;28;20023;-78
2021/12/31 05:08:56;;;;;;;5.70;0.20;;;13.70;99.90;;;;;;5094190;28;20024;-77
2021/12/31 05:11:21;;;;;;;3.25;0.40;;;13.70;99.90;;;;;;5095317;28;20017;-78
2021/12/31 05:13:47;;;;;;;1.42;0.00;;;13.70;99.90;;;;;;5095373;28;20077;-77
2021/12/31 05:16:13;;;;;;;3.20;0.40;;;13.70;99.90;;;;;;5093795;28;20027;-76
2021/12/31 05:18:38;;;;;;;2.33;0.03;;;13.60;99.90;;;;;;5094028;28;20430;-76
2021/12/31 05:21:04;;;;;;;4.35;0.63;;;13.60;99.90;;;;;;5093572;28;20031;-77
2021/12/31 05:23:29;;;;;;;0.88;0.20;;;13.50;99.90;;;;;;5093728;28;20028;-77
2021/12/31 05:25:55;;;;;;;1.90;0.20;;;13.50;99.90;;;;;;5093461;28;20099;-76
2021/12/31 05:28:20;;;;;;;5.00;0.10;;;13.50;99.90;;;;;;5093654;28;20027;-76
2021/12/31 05:30:46;;;;;;;0.82;0.10;;;13.50;99.90;;;;;;5094773;28;20020;-76
2021/12/31 05:33:12;;;;;;;0.60;0.10;;;13.50;99.90;;;;;;5093588;28;20111;-77
2021/12/31 05:35:37;;;;;;;4.38;0.10;;;13.50;99.90;;;;;;5093529;28;20137;-78
2021/12/31 05:38:03;;;;;;;2.35;0.10;;;13.50;99.90;;;;;;5095622;28;20050;-77
2021/12/31 05:40:28;;;;;;;6.22;0.70;;;13.50;99.90;;;;;;5093387;28;20086;-77
2021/12/31 05:42:54;;;;;;;0.20;0.00;;;13.50;99.90;;;;;;5093526;28;20434;-78
2021/12/31 05:45:19;;;;;;;1.35;0.10;;;13.50;99.90;;;;;;5095165;28;20111;-79
2021/12/31 05:47:47;;;;;;;0.68;0.10;;;13.40;99.90;;;;;;5093614;28;20066;-78
2021/12/31 05:50:28;;;;;;;0.93;0.10;;;13.40;99.90;;;;;;5093806;28;20023;-78
2021/12/31 05:52:58;;;;;;;0.55;0.00;;;13.40;99.90;;;;;;5095351;28;20024;-77
2021/12/31 05:55:24;;;;;;;1.38;0.28;;;13.40;99.90;;;;;;5095068;28;20020;-77
2021/12/31 05:57:49;;;;;;;3.55;0.38;;;13.40;99.90;;;;;;5094053;28;20024;-76
2021/12/31 06:00:15;;;;;;;1.58;0.30;;;13.40;99.90;;;;;;5094544;28;20032;-77
2021/12/31 06:02:41;;;;;;;3.63;0.10;;;13.30;99.90;;;;;;5093561;28;20027;-78
2021/12/31 06:05:07;;;;;;;1.40;0.15;;;13.30;99.90;;;;;;5093144;28;20472;-78
2021/12/31 06:07:33;;;;;;;2.40;0.17;;;13.30;99.90;;;;;;5094238;28;20031;-78
2021/12/31 06:09:58;;;;;;;1.65;0.05;;;13.30;99.90;;;;;;5093013;28;20024;-78
2021/12/31 06:12:24;;;;;;;0.90;0.00;;;13.30;99.90;;;;;;5093221;28;20062;-78
2021/12/31 06:14:52;;;;;;;2.13;0.40;;;13.20;99.90;;;;;;5094452;28;20138;-78
2021/12/31 06:17:23;;;;;;;1.45;0.10;;;13.20;99.90;;;;;;5093029;28;20016;-78
2021/12/31 06:19:48;;;;;;;1.75;0.17;;;13.30;99.90;;;;;;5092986;28;20085;-77
2021/12/31 06:22:15;;;;;;;1.27;0.20;;;13.20;99.90;;;;;;5094116;28;20028;-78
2021/12/31 06:24:41;;;;;;;0.82;0.30;;;13.20;99.90;;;;;;5094383;28;20365;-78
2021/12/31 06:27:07;;;;;;;1.90;0.30;;;13.20;99.90;;;;;;5093013;28;20392;-78
2021/12/31 06:29:33;;;;;;;0.30;0.20;;;13.20;99.90;;;;;;5092688;28;20103;-78
2021/12/31 06:31:58;;;;;;;2.30;0.10;;;13.20;99.90;;;;;;5092731;28;20050;-78
2021/12/31 06:34:24;;;;;;;3.33;0.20;;;13.10;99.90;;;;;;5092621;28;20097;-78
2021/12/31 06:36:50;;;;;;;2.55;0.13;;;13.10;99.90;;;;;;5093892;28;20028;-77
2021/12/31 06:39:15;;;;;;;2.00;0.10;;;13.10;99.90;;;;;;5092498;28;20066;-76
2021/12/31 06:41:41;;;;;;;0.90;0.10;;;13.10;99.90;;;;;;5092744;28;20132;-76
2021/12/31 06:44:06;;;;;;;0.20;0.10;;;13.00;99.90;;;;;;5094418;28;20030;-77
2021/12/31 06:46:32;;;;;;;1.75;0.70;;;13.00;99.90;;;;;;5092285;28;20393;-77
2021/12/31 06:48:57;;;;;;;2.00;0.38;;;13.00;99.90;;;;;;5092453;28;20114;-77
2021/12/31 06:51:23;;;;;;;3.20;0.47;;;13.00;99.90;;;;;;5092269;28;20016;-77
2021/12/31 06:53:48;;;;;;;2.13;0.15;;;13.00;99.90;;;;;;5093949;28;20034;-77
2021/12/31 06:56:14;;;;;;;2.72;1.10;;;12.90;99.90;;;;;;5094218;28;20024;-76
2021/12/31 06:58:39;;;;;;;2.65;0.30;;;12.90;99.90;;;;;;5094151;28;20031;-77
2021/12/31 07:01:05;;;;;;;3.67;0.00;;;13.00;99.90;;;;;;5092459;28;20107;-76
2021/12/31 07:03:31;;;;;;;4.75;0.20;;;12.90;99.90;;;;;;5092421;28;20023;-77
2021/12/31 07:05:57;;;;;;;1.08;0.17;;;12.90;99.90;;;;;;5092402;28;20024;-77
2021/12/31 07:08:23;;;;;;;3.00;0.20;;;12.90;99.90;;;;;;5093808;28;20123;-77
2021/12/31 07:10:48;;;;;;;0.25;0.00;;;12.80;99.90;;;;;;5097581;28;20032;-77
2021/12/31 07:13:14;;;;;;;3.03;0.63;;;12.80;99.90;;;;;;5097424;28;20028;-77
2021/12/31 07:15:48;;;;;;;2.97;0.43;;;12.80;99.90;;;;;;5096470;28;20043;-77
2021/12/31 07:18:14;;;;;;;0.47;0.00;;;12.90;99.90;;;;;;5101373;28;20111;-80
2021/12/31 07:20:40;;;;;;;0.20;0.00;;;12.90;99.90;;;;;;5104422;28;20020;-79
2021/12/31 07:23:07;;;;;;;1.92;0.00;;;12.90;99.90;;;;;;5107004;28;20043;-79
2021/12/31 07:25:34;;;;;;;1.50;0.00;;;12.90;99.90;;;;;;5105621;28;20032;-77
2021/12/31 07:28:00;;;;;;;3.10;0.00;;;12.80;99.90;;;;;;5102363;28;20024;-79
2021/12/31 07:30:26;;;;;;;1.42;0.10;;;12.80;99.90;;;;;;5103765;28;20093;-79
2021/12/31 07:32:52;;;;;;;2.00;0.17;;;12.80;99.90;;;;;;5101840;28;20016;-79
2021/12/31 07:35:17;;;;;;;0.47;0.00;;;12.80;99.90;;;;;;5098575;28;20020;-79
2021/12/31 07:37:43;;;;;;;2.03;0.00;;;12.80;99.90;;;;;;5097768;28;20032;-79
2021/12/31 07:40:11;;;;;;;1.65;0.10;;;12.80;99.90;;;;;;5099515;28;20092;-79
2021/12/31 07:42:38;;;;;;;1.27;0.10;;;12.80;99.90;;;;;;5099907;28;20077;-79
2021/12/31 07:45:05;;;;;;;2.72;0.52;;;12.80;99.90;;;;;;5098471;28;20024;-79
2021/12/31 07:47:31;;;;;;;0.65;0.00;;;12.80;99.90;;;;;;5099343;28;20028;-79
2021/12/31 07:49:56;;;;;;;2.90;0.00;;;12.80;99.90;;;;;;5094144;28;20013;-79
2021/12/31 07:52:22;;;;;;;3.80;0.08;;;12.80;99.90;;;;;;5099351;28;20020;-78
2021/12/31 07:54:48;;;;;;;2.00;0.10;;;12.80;99.90;;;;;;5101558;28;20012;-79
2021/12/31 07:57:13;;;;;;;1.95;0.00;;;12.80;99.90;;;;;;5099012;28;20016;-79
2021/12/31 07:59:39;;;;;;;0.98;0.08;;;12.70;99.90;;;;;;5115234;28;20031;-79
2021/12/31 08:02:05;;;;;;;0.40;0.10;;;12.70;99.90;;;;;;5117475;28;20023;-79
2021/12/31 08:04:30;;;;;;;0.73;0.22;;;12.80;99.90;;;;;;5116185;28;20019;-78
2021/12/31 08:06:56;;;;;;;0.82;0.00;;;12.80;99.90;;;;;;5117021;28;20027;-79
2021/12/31 08:09:21;;;;;;;2.90;0.00;;;12.80;99.90;;;;;;5115540;28;20044;-78
2021/12/31 08:11:47;;;;;;;2.83;0.00;;;12.80;99.90;;;;;;5117470;28;20016;-78
2021/12/31 08:14:12;;;;;;;4.38;0.00;;;12.80;99.90;;;;;;5117359;28;20027;-78
2021/12/31 08:16:38;;;;;;;0.80;0.10;;;12.70;99.90;;;;;;5118057;27;20035;-79
2021/12/31 08:19:03;;;;;;;0.47;0.25;;;12.70;99.90;;;;;;5116853;28;20019;-79
2021/12/31 08:21:29;;;;;;;8.50;1.20;;;12.70;99.90;;;;;;5116292;28;20059;-78
2021/12/31 08:23:55;;;;;;;3.83;0.57;;;12.70;99.90;;;;;;5116866;28;20033;-79
2021/12/31 08:26:20;;;;;;;0.77;0.00;;;12.70;99.90;;;;;;5118698;28;20023;-79
2021/12/31 08:28:46;;;;;;;2.65;0.10;;;12.80;99.90;;;;;;5116984;28;20047;-79
2021/12/31 08:31:11;;;;;;;2.13;0.20;;;12.80;99.90;;;;;;5118081;28;20019;-79
2021/12/31 08:33:37;;;;;;;0.20;0.00;;;12.90;99.90;;;;;;5116628;28;20081;-79
2021/12/31 08:36:03;;;;;;;2.40;0.10;;;12.80;99.90;;;;;;5117489;28;20024;-79
2021/12/31 08:38:29;;;;;;;5.60;0.00;;;12.80;99.90;;;;;;5116400;28;20483;-79
2021/12/31 08:40:57;;;;;;;4.70;0.45;;;12.80;99.90;;;;;;5117663;28;20026;-79
2021/12/31 08:43:23;;;;;;;4.20;0.77;;;12.80;99.90;;;;;;5116984;28;20452;-79
2021/12/31 08:45:48;;;;;;;1.40;0.00;;;12.80;99.90;;;;;;5120492;27;20031;-79
2021/12/31 08:48:14;;;;;;;1.83;0.47;;;12.80;99.90;;;;;;5119311;28;20023;-79
2021/12/31 08:50:39;;;;;;;1.52;0.10;;;12.80;99.90;;;;;;5117688;28;20399;-79
2021/12/31 08:53:05;;;;;;;3.63;0.20;;;12.90;99.90;;;;;;5115977;28;20019;-79
2021/12/31 08:55:31;;;;;;;9.20;1.08;;;12.90;99.90;;;;;;5116529;28;20062;-79
2021/12/31 08:57:57;;;;;;;1.30;0.00;;;14.10;99.90;;;;;;5115497;28;20030;-79
2021/12/31 09:00:22;;;;;;;2.53;0.28;;;12.90;99.90;;;;;;5115476;28;20110;-79
2021/12/31 09:02:49;;;;;;;3.35;0.45;;;13.00;99.90;;;;;;5116702;28;20030;-79
2021/12/31 09:05:16;;;;;;;1.40;0.10;;;12.90;99.90;;;;;;5115680;28;20025;-79
2021/12/31 09:07:41;;;;;;;1.45;0.35;;;13.00;99.90;;;;;;5116616;28;20031;-78
2021/12/31 09:10:08;;;;;;;3.40;0.28;;;13.00;99.90;;;;;;5117471;28;20027;-79
2021/12/31 09:12:34;;;;;;;0.85;0.10;;;13.00;99.90;;;;;;5119091;28;20045;-78
2021/12/31 09:15:00;;;;;;;3.03;0.22;;;13.00;99.90;;;;;;5119830;28;20448;-79
2021/12/31 09:17:26;;;;;;;1.92;0.00;;;13.00;99.90;;;;;;5115244;28;20022;-79
2021/12/31 09:19:52;;;;;;;1.73;0.10;;;13.00;99.90;;;;;;5116364;28;20019;-79
2021/12/31 09:22:17;;;;;;;3.13;0.00;;;13.00;99.90;;;;;;5116443;28;20024;-77
2021/12/31 09:24:43;;;;;;;0.93;0.13;;;13.10;99.90;;;;;;5117010;28;20019;-78
2021/12/31 09:27:09;;;;;;;2.38;0.22;;;13.10;99.90;;;;;;5104554;28;20028;-78
2021/12/31 09:29:34;;;;;;;0.68;0.20;;;13.10;99.90;;;;;;5081365;28;20429;-77
2021/12/31 09:32:00;;;;;;;3.92;0.57;;;13.10;99.90;;;;;;5072670;28;20359;-76
2021/12/31 09:34:25;;;;;;;3.42;0.10;;;13.10;99.90;;;;;;5076249;28;20116;-76
2021/12/31 09:36:51;;;;;;;3.83;0.25;;;13.20;99.90;;;;;;5095123;28;20028;-75
2021/12/31 09:39:17;;;;;;;0.95;0.10;;;13.20;99.90;;;;;;5090211;28;20052;-74
2021/12/31 09:41:43;;;;;;;0.95;0.43;;;13.20;99.90;;;;;;5079215;28;20086;-76
2021/12/31 09:44:10;;;;;;;0.68;0.22;;;13.20;99.90;;;;;;5074193;28;20078;-76
2021/12/31 09:46:36;;;;;;;3.55;0.15;;;13.20;99.90;;;;;;5080109;28;20024;-75
2021/12/31 09:49:02;;;;;;;2.50;0.10;;;13.20;99.90;;;;;;5094269;28;20030;-75
2021/12/31 09:51:28;;;;;;;1.73;0.10;;;13.20;99.90;;;;;;5105899;28;20051;-76
2021/12/31 09:53:58;;;;;;;2.53;0.52;;;13.20;99.90;;;;;;5094910;28;20024;-76
2021/12/31 09:56:24;;;;;;;1.48;0.10;;;13.20;99.90;;;;;;5104378;28;20024;-76
2021/12/31 09:58:49;;;;;;;1.67;0.30;;;13.10;99.90;;;;;;5114364;28;20023;-75
2021/12/31 10:01:15;;;;;;;0.40;0.10;;;13.10;99.90;;;;;;5115088;28;20030;-75
2021/12/31 10:03:41;;;;;;;1.25;0.10;;;13.20;99.90;;;;;;5113476;28;20027;-76
2021/12/31 10:06:18;;;;;;;2.28;0.40;;;13.20;99.90;;;;;;5112468;28;20020;-75
2021/12/31 10:08:46;;;;;;;3.63;0.80;;;13.10;99.90;;;;;;5100778;28;20020;-75
2021/12/31 10:11:19;;;;;;;4.43;0.15;;;13.10;99.90;;;;;;5082293;28;20042;-75
2021/12/31 10:13:55;;;;;;;3.50;0.20;;;13.20;99.90;;;;;;5093761;28;20020;-75
2021/12/31 10:16:24;;;;;;;2.25;0.30;;;13.20;99.90;;;;;;5085983;28;20039;-75
2021/12/31 10:19:05;;;;;;;0.82;0.22;;;13.20;99.90;;;;;;5076888;28;20028;-76
2021/12/31 10:21:40;;;;;;;3.58;0.10;;;13.20;99.90;;;;;;5073538;28;20465;-75
2021/12/31 10:24:32;;;;;;;4.28;0.32;;;13.20;99.90;;;;;;5073396;28;20370;-75
2021/12/31 10:27:02;;;;;;;1.35;0.25;;;13.20;99.90;;;;;;5073129;28;20028;-75
2021/12/31 10:29:28;;;;;;;1.83;0.43;;;13.20;99.90;;;;;;5072850;28;20028;-75
2021/12/31 10:31:54;;;;;;;1.13;0.20;;;13.20;99.90;;;;;;5071814;28;20024;-75
2021/12/31 10:34:41;;;;;;;3.88;0.32;;;13.20;99.90;;;;;;5073103;28;20021;-75
2021/12/31 10:37:16;;;;;;;0.63;0.10;;;13.20;99.90;;;;;;5073041;28;20389;-74
2021/12/31 10:39:42;;;;;;;4.82;0.75;;;13.20;99.90;;;;;;5073089;28;20028;-76
2021/12/31 10:42:09;;;;;;;1.98;0.40;;;13.20;99.90;;;;;;5073131;28;20370;-76
2021/12/31 10:44:52;;;;;;;2.10;0.13;;;13.20;99.90;;;;;;5075805;28;20540;-75
2021/12/31 10:47:33;;;;;;;2.88;0.57;;;13.20;99.90;;;;;;5075812;28;20028;-76
2021/12/31 10:50:11;;;;;;;1.27;0.10;;;13.20;99.90;;;;;;5077732;28;20430;-74
2021/12/31 10:52:55;;;;;;;1.63;0.20;;;13.20;99.90;;;;;;5075824;28;20062;-74
2021/12/31 10:55:26;;;;;;;6.45;0.30;;;13.30;99.90;;;;;;5079105;28;20017;-74
2021/12/31 10:58:03;;;;;;;3.20;0.70;;;13.30;99.90;;;;;;5077263;28;20028;-74
2021/12/31 11:00:33;;;;;;;1.67;0.43;;;13.30;99.90;;;;;;5082949;28;20028;-74
2021/12/31 11:02:59;;;;;;;2.30;0.10;;;13.40;99.90;;;;;;5095330;28;20039;-74
2021/12/31 11:05:25;;;;;;;2.22;0.40;;;13.50;99.90;;;;;;5086785;28;20050;-74
2021/12/31 11:07:52;;;;;;;3.28;0.40;;;13.60;99.90;;;;;;5096080;28;20024;-74
2021/12/31 11:10:24;;;;;;;1.92;0.30;;;13.70;99.90;;;;;;5096950;28;20020;-74
2021/12/31 11:12:52;;;;;;;2.60;0.65;;;13.80;99.90;;;;;;5095784;28;20032;-74
2021/12/31 11:15:18;;;;;;;4.35;0.40;;;13.90;99.90;;;;;;5091514;28;20070;-74
2021/12/31 11:17:44;;;;;;;2.08;0.10;;;13.90;99.90;;;;;;5085235;28;20029;-74
2021/12/31 11:20:12;;;;;;;2.45;0.52;;;13.90;99.90;;;;;;5097736;28;20024;-74
2021/12/31 11:22:38;;;;;;;3.53;0.20;;;13.90;99.90;;;;;;5094092;28;20082;-74
2021/12/31 11:25:22;;;;;;;1.02;0.30;;;13.90;99.90;;;;;;5076788;28;20036;-75
2021/12/31 11:27:48;;;;;;;4.13;0.25;;;13.80;99.90;;;;;;5079049;28;20020;-74
2021/12/31 11:30:48;;;;;;;7.82;1.05;;;13.80;99.90;;;;;;5090583;28;20528;-73
2021/12/31 11:33:20;;;;;;;2.83;0.30;;;13.80;99.90;;;;;;5083915;28;20111;-73
2021/12/31 11:36:02;;;;;;;2.67;0.32;;;13.80;99.90;;;;;;5095602;28;20407;-73
2021/12/31 11:38:27;;;;;;;4.30;0.30;;;13.70;99.90;;;;;;5093806;28;20492;-73
2021/12/31 11:41:14;;;;;;;3.60;0.85;;;13.60;99.90;;;;;;5097130;28;20016;-77
2021/12/31 11:43:41;;;;;;;3.65;0.63;;;13.60;99.90;;;;;;5081095;28;20033;-75
2021/12/31 11:46:10;;;;;;;4.75;0.57;;;13.60;99.90;;;;;;5076533;28;20024;-75
2021/12/31 11:51:11;;;;;;;0.75;0.13;;;13.50;99.90;;;;;;5095153;28;20121;-75
2021/12/31 11:53:56;;;;;;;7.63;0.28;;;13.50;99.90;;;;;;5082213;28;20087;-75
2021/12/31 11:59:24;;;;;;;2.15;0.10;;;13.50;99.90;;;;;;5076388;28;20040;-76
2021/12/31 12:02:15;;;;;;;3.78;0.80;;;13.50;99.90;;;;;;5088766;28;20089;-75
2021/12/31 12:04:43;;;;;;;1.52;0.10;;;13.50;99.90;;;;;;5087418;28;20381;-75
2021/12/31 12:07:32;;;;;;;5.63;0.50;;;13.50;99.90;;;;;;5094612;28;20072;-75
2021/12/31 12:10:09;;;;;;;2.80;0.30;;;13.50;99.90;;;;;;5096162;28;20028;-74
2021/12/31 12:12:37;;;;;;;3.65;0.30;;;13.50;99.90;;;;;;5096361;28;20086;-75
2021/12/31 12:15:14;;;;;;;2.97;0.30;;;13.50;99.90;;;;;;5096145;28;20160;-75
2021/12/31 12:17:43;;;;;;;5.93;0.10;;;13.40;99.90;;;;;;5096251;28;20051;-75
2021/12/31 12:20:19;;;;;;;3.80;0.80;;;13.60;99.90;;;;;;5096034;28;20039;-75
2021/12/31 12:22:53;;;;;;;2.65;0.28;;;13.70;99.90;;;;;;5096655;28;20023;-75
2021/12/31 12:25:33;;;;;;;3.53;0.47;;;13.70;99.90;;;;;;5094774;28;20039;-75
2021/12/31 12:28:09;;;;;;;6.57;0.43;;;13.60;99.90;;;;;;5095938;28;20070;-75
2021/12/31 12:30:38;;;;;;;3.03;0.75;;;13.60;99.90;;;;;;5094648;28;20056;-75
2021/12/31 12:33:16;;;;;;;1.60;0.15;;;13.60;99.90;;;;;;5096467;28;20027;-75
2021/12/31 12:35:46;;;;;;;3.53;0.80;;;13.60;99.90;;;;;;5096113;28;20046;-75
2021/12/31 12:38:19;;;;;;;1.60;0.35;;;13.60;99.90;;;;;;5095833;28;20084;-75
2021/12/31 12:40:58;;;;;;;1.50;0.50;;;13.50;99.90;;;;;;5094458;28;20028;-75
2021/12/31 12:43:26;;;;;;;;;;;13.50;99.90;;;;;;5095260;28;20107;-76
2021/12/31 12:45:58;;;;;;;1.95;0.50;;;13.40;99.90;;;;;;5094647;28;19979;-76
2021/12/31 12:48:42;;;;;;;1.65;0.63;;;13.30;99.90;;;;;;5096112;28;20372;-76
2021/12/31 12:51:12;;;;;;;3.22;0.50;;;13.30;99.90;;;;;;5095729;28;20024;-76
2021/12/31 12:53:44;;;;;;;1.80;0.50;;;13.30;99.90;;;;;;5095962;28;20009;-76
2021/12/31 12:56:13;;;;;;;3.78;0.70;;;13.20;99.90;;;;;;5094142;28;20023;-76
2021/12/31 12:58:41;;;;;;;2.70;0.40;;;13.20;99.90;;;;;;5094117;28;20548;-76